createdAt,value
2022-09-12T00:01:42.280Z,100015.47
2022-09-12T00:04:44.617Z,100015.81
2022-09-12T00:07:46.757Z,100017.41
2022-09-12T00:10:49.182Z,100003.56
2022-09-12T00:13:52.359Z,100007.38
2022-09-12T00:16:59.251Z,100003.94
2022-09-12T00:20:02.043Z,100005.00
2022-09-12T00:23:04.603Z,100002.25
2022-09-12T00:26:07.912Z,100005.50
2022-09-12T00:29:16.773Z,100008.88
2022-09-12T00:32:19.018Z,100005.69
2022-09-12T00:35:21.391Z,100009.72
2022-09-12T00:38:23.462Z,100007.53
2022-09-12T00:41:34.879Z,100009.09
2022-09-12T00:44:36.923Z,100005.16
2022-09-12T00:47:39.311Z,100012.44
2022-09-12T00:50:41.449Z,100018.09
2022-09-12T00:53:46.152Z,100010.44
2022-09-12T00:56:51.202Z,100007.97
2022-09-12T01:00:08.708Z,100011.06
2022-09-12T01:03:17.709Z,99997.06
2022-09-12T01:06:28.729Z,99998.59
2022-09-12T01:09:31.215Z,99996.28
2022-09-12T01:12:34.765Z,99998.22
2022-09-12T01:15:38.900Z,99997.22
2022-09-12T01:19:20.163Z,100005.00
2022-09-12T01:22:25.095Z,99999.38
2022-09-12T01:26:00.408Z,99999.38
2022-09-12T01:29:11.203Z,99996.28
2022-09-12T01:32:19.269Z,99998.03
2022-09-12T01:35:32.491Z,99998.03
2022-09-12T01:38:42.590Z,99996.59
2022-09-12T01:41:54.511Z,99986.69
2022-09-12T01:45:23.106Z,100001.53
2022-09-12T01:48:33.069Z,99989.50
2022-09-12T01:51:48.912Z,99996.09
2022-09-12T01:55:09.950Z,99998.03
2022-09-12T01:58:18.963Z,99994.50
2022-09-12T02:01:27.428Z,99990.72
2022-09-12T02:04:34.769Z,99994.50
2022-09-12T02:07:43.279Z,99990.94
2022-09-12T02:10:53.698Z,99998.81
2022-09-12T02:14:06.616Z,99994.50
2022-09-12T02:17:22.325Z,99995.91
2022-09-12T02:20:47.500Z,100001.38
2022-09-12T02:23:57.270Z,100010.44
2022-09-12T02:27:09.993Z,100010.25
2022-09-12T02:30:16.436Z,100004.28
2022-09-12T02:33:30.924Z,100006.56
2022-09-12T02:36:40.054Z,100010.72
2022-09-12T02:39:45.330Z,100012.22
2022-09-12T02:42:48.025Z,100005.63
2022-09-12T02:45:50.337Z,100009.31
2022-09-12T02:48:54.304Z,100003.59
2022-09-12T02:51:56.506Z,100009.78
2022-09-12T02:54:59.840Z,100016.63
2022-09-12T02:58:05.163Z,100013.81
2022-09-12T03:01:14.856Z,100009.22
2022-09-12T03:04:55.723Z,100010.59
2022-09-12T03:08:20.286Z,100016.41
2022-09-12T03:11:42.231Z,100014.00
2022-09-12T03:15:01.508Z,100017.72
2022-09-12T03:18:20.898Z,100026.03
2022-09-12T03:21:33.486Z,100024.78
2022-09-12T03:24:40.939Z,100031.72
2022-09-12T03:27:53.032Z,100032.72
2022-09-12T03:30:56.503Z,100029.81
2022-09-12T03:34:02.013Z,100023.66
2022-09-12T03:37:04.170Z,100025.06
2022-09-12T03:40:08.075Z,100025.06
2022-09-12T03:43:11.200Z,100025.75
2022-09-12T03:46:13.988Z,100017.16
2022-09-12T03:49:16.553Z,100024.91
2022-09-12T03:52:19.331Z,100033.41
2022-09-12T03:55:21.389Z,100028.62
2022-09-12T03:58:24.193Z,100032.50
2022-09-12T04:01:26.304Z,100025.81
2022-09-12T04:04:28.659Z,100035.59
2022-09-12T04:07:30.808Z,100029.06
2022-09-12T04:10:33.374Z,100027.19
2022-09-12T04:13:36.527Z,100022.22
2022-09-12T04:16:38.874Z,100021.75
2022-09-12T04:19:40.925Z,100029.25
2022-09-12T04:22:43.272Z,100017.41
2022-09-12T04:25:52.949Z,100018.03
2022-09-12T04:28:57.525Z,100020.84
2022-09-12T04:31:59.575Z,100023.94
2022-09-12T04:35:02.207Z,100025.69
2022-09-12T04:38:04.254Z,100027.25
2022-09-12T04:41:20.715Z,100032.28
2022-09-12T04:44:22.837Z,100026.94
2022-09-12T04:47:25.199Z,100025.59
2022-09-12T04:50:27.742Z,100026.03
2022-09-12T04:53:30.173Z,100041.31
2022-09-12T04:56:34.362Z,100047.37
2022-09-12T04:59:36.697Z,100043.13
2022-09-12T05:02:39.583Z,100045.16
2022-09-12T05:05:41.974Z,100043.50
2022-09-12T05:08:44.140Z,100049.31
2022-09-12T05:12:03.802Z,100051.00
2022-09-12T05:15:07.299Z,100052.34
2022-09-12T05:18:09.627Z,100057.06
2022-09-12T05:21:15.829Z,100057.25
2022-09-12T05:24:18.352Z,100067.03
2022-09-12T05:27:20.526Z,100066.56
2022-09-12T05:30:22.904Z,100076.44
2022-09-12T05:33:25.306Z,100074.69
2022-09-12T05:36:31.901Z,100069.22
2022-09-12T05:39:33.980Z,100077.16
2022-09-12T05:42:36.792Z,100075.31
2022-09-12T05:45:39.352Z,100081.09
2022-09-12T05:48:43.641Z,100083.84
2022-09-12T05:51:46.119Z,100083.38
2022-09-12T05:54:48.745Z,100089.62
2022-09-12T05:57:51.098Z,100086.47
2022-09-12T06:00:53.459Z,100084.06
2022-09-12T06:03:57.704Z,100088.06
2022-09-12T06:07:00.284Z,100090.94
2022-09-12T06:10:05.318Z,100096.31
2022-09-12T06:13:08.637Z,100094.19
2022-09-12T06:16:14.557Z,100097.81
2022-09-12T06:19:21.542Z,100092.78
2022-09-12T06:22:23.911Z,100103.00
2022-09-12T06:25:26.393Z,100105.63
2022-09-12T06:28:29.022Z,100109.94
2022-09-12T06:31:36.645Z,100105.09
2022-09-12T06:34:39.310Z,100107.53
2022-09-12T06:37:44.383Z,100106.47
2022-09-12T06:40:47.058Z,100114.22
2022-09-12T06:43:49.107Z,100110.09
2022-09-12T06:46:54.212Z,100108.53
2022-09-12T06:49:56.334Z,100105.25
2022-09-12T06:52:58.652Z,100109.13
2022-09-12T06:56:03.875Z,100119.53
2022-09-12T06:59:06.751Z,100122.41
2022-09-12T07:02:09.974Z,100114.59
2022-09-12T07:05:12.967Z,100110.97
2022-09-12T07:08:15.063Z,100111.91
2022-09-12T07:11:23.780Z,100116.75
2022-09-12T07:14:26.066Z,100113.59
2022-09-12T07:17:28.847Z,100111.59
2022-09-12T07:20:32.887Z,100115.19
2022-09-12T07:23:35.219Z,100113.47
2022-09-12T07:26:38.811Z,100116.28
2022-09-12T07:29:41.297Z,100123.41
2022-09-12T07:32:43.391Z,100117.84
2022-09-12T07:35:45.708Z,100120.94
2022-09-12T07:38:48.749Z,100123.97
2022-09-12T07:41:52.042Z,100129.41
2022-09-12T07:44:54.136Z,100136.88
2022-09-12T07:47:56.713Z,100131.06
2022-09-12T07:51:04.329Z,100123.25
2022-09-12T07:54:09.890Z,100122.69
2022-09-12T07:57:11.999Z,100123.50
2022-09-12T08:00:16.045Z,100122.50
2022-09-12T08:03:19.570Z,100126.19
2022-09-12T08:06:25.939Z,100130.75
2022-09-12T08:09:28.276Z,100124.69
2022-09-12T08:12:32.235Z,100132.63
2022-09-12T08:15:34.767Z,100133.38
2022-09-12T08:18:37.120Z,100137.34
2022-09-12T08:21:39.599Z,100137.72
2022-09-12T08:24:41.892Z,100124.75
2022-09-12T08:27:44.286Z,100134.47
2022-09-12T08:30:46.598Z,100127.12
2022-09-12T08:33:49.267Z,100129.69
2022-09-12T08:36:54.163Z,100129.44
2022-09-12T08:39:56.977Z,100138.50
2022-09-12T08:43:11.626Z,100133.47
2022-09-12T08:46:23.722Z,100134.06
2022-09-12T08:49:33.775Z,100129.88
2022-09-12T08:52:58.436Z,100130.34
2022-09-12T08:56:00.586Z,100132.00
2022-09-12T08:59:03.305Z,100119.09
2022-09-12T09:02:32.944Z,100114.56
2022-09-12T09:06:03.058Z,100114.84
2022-09-12T09:09:11.942Z,100114.41
2022-09-12T09:12:29.051Z,100107.91
2022-09-12T09:15:36.203Z,100111.00
2022-09-12T09:18:40.736Z,100104.44
2022-09-12T09:22:04.351Z,100110.94
2022-09-12T09:25:19.707Z,100107.28
2022-09-12T09:28:49.800Z,100109.69
2022-09-12T09:31:55.924Z,100114.19
2022-09-12T09:34:58.274Z,100126.19
2022-09-12T09:38:39.398Z,100116.28
2022-09-12T09:41:47.309Z,100114.53
2022-09-12T09:44:53.468Z,100116.34
2022-09-12T09:48:06.171Z,100107.28
2022-09-12T09:51:09.452Z,100111.97
2022-09-12T09:54:23.276Z,100114.81
2022-09-12T09:57:34.730Z,100119.53
2022-09-12T10:00:38.543Z,100126.22
2022-09-12T10:03:48.685Z,100113.19
2022-09-12T10:06:56.943Z,100114.38
2022-09-12T10:10:07.677Z,100111.19
2022-09-12T10:13:24.623Z,100103.72
2022-09-12T10:16:32.755Z,100108.19
2022-09-12T10:19:37.532Z,100116.44
2022-09-12T10:22:39.957Z,100125.06
2022-09-12T10:25:47.729Z,100117.53
2022-09-12T10:28:55.956Z,100123.78
2022-09-12T10:32:02.090Z,100123.66
2022-09-12T10:35:09.133Z,100121.78
2022-09-12T10:38:22.747Z,100114.34
2022-09-12T10:41:25.421Z,100117.06
2022-09-12T10:44:34.161Z,100126.47
2022-09-12T10:47:37.927Z,100116.31
2022-09-12T10:50:41.951Z,100107.75
2022-09-12T10:53:46.732Z,100103.06
2022-09-12T10:57:07.744Z,100098.00
2022-09-12T11:00:17.632Z,100090.50
2022-09-12T11:03:43.795Z,100095.56
2022-09-12T11:07:13.679Z,100098.63
2022-09-12T11:10:46.293Z,100089.50
2022-09-12T11:13:58.262Z,100103.22
2022-09-12T11:17:08.867Z,100102.31
2022-09-12T11:20:40.922Z,100101.13
2022-09-12T11:24:01.494Z,100103.09
2022-09-12T11:27:26.711Z,100100.66
2022-09-12T11:30:37.213Z,100096.22
2022-09-12T11:33:45.684Z,100090.72
2022-09-12T11:36:50.675Z,100104.94
2022-09-12T11:39:57.796Z,100114.25
2022-09-12T11:43:06.593Z,100100.94
2022-09-12T11:46:58.579Z,100098.81
2022-09-12T11:50:05.477Z,100096.88
2022-09-12T11:53:19.341Z,100105.00
2022-09-12T11:56:21.463Z,100100.53
2022-09-12T11:59:42.764Z,100091.59
2022-09-12T12:03:17.361Z,100085.72
2022-09-12T12:06:33.491Z,100088.41
2022-09-12T12:09:36.501Z,100083.59
2022-09-12T12:12:39.037Z,100085.94
2022-09-12T12:15:49.822Z,100088.59
2022-09-12T12:18:58.093Z,100081.88
2022-09-12T12:22:12.434Z,100070.53
2022-09-12T12:25:18.361Z,100063.53
2022-09-12T12:28:43.126Z,100065.88
2022-09-12T12:32:03.586Z,100076.50
2022-09-12T12:35:46.281Z,100055.69
2022-09-12T12:38:48.620Z,100064.88
2022-09-12T12:41:50.699Z,100066.44
2022-09-12T12:44:53.226Z,100068.41
2022-09-12T12:47:59.853Z,100058.97
2022-09-12T12:51:39.824Z,100055.81
2022-09-12T12:54:41.852Z,100062.94
2022-09-12T12:57:50.893Z,100062.94
2022-09-12T13:01:16.512Z,100056.25
2022-09-12T13:04:22.300Z,100059.00
2022-09-12T13:07:29.056Z,100070.38
2022-09-12T13:10:31.815Z,100064.84
2022-09-12T13:13:41.767Z,100057.37
2022-09-12T13:16:56.424Z,100055.41
2022-09-12T13:20:30.100Z,100049.47
2022-09-12T13:23:32.819Z,100048.28
2022-09-12T13:26:42.015Z,100046.28
2022-09-12T13:29:44.364Z,100045.94
2022-09-12T13:32:46.450Z,100046.28
2022-09-12T13:36:06.405Z,100032.19
2022-09-12T13:39:28.828Z,100030.69
2022-09-12T13:42:39.343Z,100024.41
2022-09-12T13:45:43.571Z,100023.59
2022-09-12T13:48:46.550Z,100042.47
2022-09-12T13:52:18.419Z,100025.97
2022-09-12T13:55:41.668Z,100031.06
2022-09-12T13:58:56.794Z,100020.03
2022-09-12T14:01:59.208Z,100029.88
2022-09-12T14:05:11.795Z,100030.25
2022-09-12T14:08:15.283Z,100033.00
2022-09-12T14:11:25.115Z,100046.28
2022-09-12T14:14:36.528Z,100043.87
2022-09-12T14:17:39.610Z,100041.13
2022-09-12T14:20:42.697Z,100035.56
2022-09-12T14:23:48.077Z,100042.22
2022-09-12T14:26:56.624Z,100033.63
2022-09-12T14:30:03.794Z,100032.03
2022-09-12T14:33:05.831Z,100032.50
2022-09-12T14:36:19.393Z,100034.47
2022-09-12T14:39:38.165Z,100027.47
2022-09-12T14:42:42.458Z,100020.41
2022-09-12T14:45:51.935Z,100023.56
2022-09-12T14:49:08.413Z,100032.22
2022-09-12T14:52:33.085Z,100026.72
2022-09-12T14:55:43.399Z,100034.97
2022-09-12T14:58:45.493Z,100029.50
2022-09-12T15:01:47.955Z,100023.56
2022-09-12T15:04:53.116Z,100026.69
2022-09-12T15:08:02.574Z,100021.09
2022-09-12T15:11:06.953Z,100015.59
2022-09-12T15:14:13.597Z,100014.47
2022-09-12T15:17:15.678Z,100016.09
2022-09-12T15:20:17.984Z,100008.62
2022-09-12T15:23:33.093Z,100012.56
2022-09-12T15:26:35.605Z,100015.72
2022-09-12T15:29:38.525Z,100011.75
2022-09-12T15:32:43.362Z,100009.00
2022-09-12T15:35:46.035Z,100019.59
2022-09-12T15:38:49.222Z,100017.66
2022-09-12T15:41:51.551Z,100012.94
2022-09-12T15:44:53.875Z,100018.84
2022-09-12T15:47:56.715Z,100013.72
2022-09-12T15:51:01.627Z,100010.16
2022-09-12T15:54:04.886Z,100014.84
2022-09-12T15:57:07.936Z,100012.47
2022-09-12T16:00:10.655Z,100007.75
2022-09-12T16:03:25.250Z,100008.94
2022-09-12T16:06:33.560Z,100008.53
2022-09-12T16:09:38.421Z,100015.19
2022-09-12T16:12:40.847Z,100015.56
2022-09-12T16:15:42.982Z,100016.72
2022-09-12T16:18:45.445Z,100012.44
2022-09-12T16:21:47.955Z,100020.22
2022-09-12T16:24:50.277Z,100028.06
2022-09-12T16:27:52.431Z,100019.41
2022-09-12T16:31:02.453Z,100023.72
2022-09-12T16:34:04.610Z,100023.28
2022-09-12T16:37:06.928Z,100031.50
2022-09-12T16:40:09.700Z,100020.91
2022-09-12T16:43:12.114Z,100021.66
2022-09-12T16:46:15.939Z,100016.09
2022-09-12T16:49:18.366Z,100015.62
2022-09-12T16:52:20.597Z,100004.22
2022-09-12T16:55:22.941Z,99997.84
2022-09-12T16:58:25.446Z,100003.34
2022-09-12T17:01:27.913Z,100001.00
2022-09-12T17:04:30.059Z,100002.03
2022-09-12T17:07:34.120Z,100001.19
2022-09-12T17:10:41.102Z,100002.66
2022-09-12T17:14:03.690Z,100008.44
2022-09-12T17:17:07.222Z,100008.44
2022-09-12T17:20:09.597Z,100018.50
2022-09-12T17:23:11.685Z,100015.41
2022-09-12T17:26:14.946Z,100018.03
2022-09-12T17:29:17.988Z,100018.03
2022-09-12T17:32:20.326Z,100024.56
2022-09-12T17:35:22.366Z,100031.53
2022-09-12T17:38:25.453Z,100034.53
2022-09-12T17:41:29.453Z,100032.56
2022-09-12T17:44:31.884Z,100033.28
2022-09-12T17:47:34.003Z,100037.53
2022-09-12T17:50:39.522Z,100037.88
2022-09-12T17:53:42.557Z,100038.19
2022-09-12T17:56:46.725Z,100043.69
2022-09-12T17:59:48.799Z,100044.50
2022-09-12T18:02:51.155Z,100052.62
2022-09-12T18:05:55.810Z,100052.62
2022-09-12T18:09:03.085Z,100057.56
2022-09-12T18:12:05.972Z,100063.09
2022-09-12T18:15:08.694Z,100061.31
2022-09-12T18:18:11.072Z,100069.78
2022-09-12T18:21:13.438Z,100084.13
2022-09-12T18:24:15.951Z,100076.53
2022-09-12T18:27:18.031Z,100079.88
2022-09-12T18:30:22.893Z,100079.47
2022-09-12T18:33:25.333Z,100087.87
2022-09-12T18:36:29.134Z,100085.91
2022-09-12T18:39:31.232Z,100091.28
2022-09-12T18:42:33.571Z,100082.22
2022-09-12T18:45:35.719Z,100084.91
2022-09-12T18:48:38.541Z,100091.03
2022-09-12T18:51:41.775Z,100088.59
2022-09-12T18:54:44.279Z,100087.50
2022-09-12T18:57:46.878Z,100087.38
2022-09-12T19:00:50.059Z,100078.81
2022-09-12T19:03:53.743Z,100088.19
2022-09-12T19:06:56.075Z,100081.44
2022-09-12T19:09:58.207Z,100081.06
2022-09-12T19:13:01.730Z,100082.50
2022-09-12T19:16:09.100Z,100084.72
2022-09-12T19:19:11.576Z,100086.84
2022-09-12T19:22:13.658Z,100084.75
2022-09-12T19:25:16.048Z,100088.28
2022-09-12T19:28:18.136Z,100083.53
2022-09-12T19:31:21.761Z,100081.19
2022-09-12T19:34:23.900Z,100080.31
2022-09-12T19:37:26.287Z,100084.06
2022-09-12T19:40:28.414Z,100084.06
2022-09-12T19:43:32.069Z,100082.50
2022-09-12T19:46:34.347Z,100086.22
2022-09-12T19:49:36.747Z,100086.16
2022-09-12T19:52:38.828Z,100087.66
2022-09-12T19:55:41.278Z,100081.06
2022-09-12T19:58:46.073Z,100079.03
2022-09-12T20:01:48.563Z,100082.91
2022-09-12T20:04:51.443Z,100081.34
2022-09-12T20:07:53.934Z,100081.72
2022-09-12T20:10:57.200Z,100078.47
2022-09-12T20:13:59.539Z,100079.25
2022-09-12T20:17:02.007Z,100077.72
2022-09-12T20:20:06.816Z,100085.00
2022-09-12T20:23:09.275Z,100082.97
2022-09-12T20:26:11.470Z,100081.25
2022-09-12T20:29:14.253Z,100085.41
2022-09-12T20:32:18.208Z,100088.78
2022-09-12T20:35:20.660Z,100091.78
2022-09-12T20:38:22.727Z,100086.44
2022-09-12T20:41:27.424Z,100090.31
2022-09-12T20:44:30.243Z,100091.31
2022-09-12T20:47:32.617Z,100098.69
2022-09-12T20:50:34.708Z,100097.53
2022-09-12T20:53:37.450Z,100097.81
2022-09-12T20:56:39.561Z,100102.97
2022-09-12T20:59:42.552Z,100105.78
2022-09-12T21:02:44.703Z,100101.72
2022-09-12T21:05:47.280Z,100096.56
2022-09-12T21:08:50.554Z,100104.66
2022-09-12T21:11:52.908Z,100096.19
2022-09-12T21:14:55.120Z,100106.31
2022-09-12T21:17:57.923Z,100101.13
2022-09-12T21:21:00.315Z,100100.78
2022-09-12T21:24:04.534Z,100105.31
2022-09-12T21:27:06.853Z,100106.25
2022-09-12T21:30:09.513Z,100104.44
2022-09-12T21:33:11.626Z,100111.34
2022-09-12T21:36:14.250Z,100113.66
2022-09-12T21:39:16.291Z,100118.97
2022-09-12T21:42:18.682Z,100122.47
2022-09-12T21:45:20.739Z,100122.81
2022-09-12T21:48:23.106Z,100127.34
2022-09-12T21:51:25.344Z,100131.19
2022-09-12T21:54:27.821Z,100140.22
2022-09-12T21:57:29.984Z,100140.34
2022-09-12T22:00:32.520Z,100140.12
2022-09-12T22:03:34.898Z,100141.25
2022-09-12T22:06:37.199Z,100143.84
2022-09-12T22:09:39.545Z,100140.44
2022-09-12T22:12:46.059Z,100137.00
2022-09-12T22:15:53.063Z,100129.97
2022-09-12T22:18:55.161Z,100134.25
2022-09-12T22:22:16.240Z,100140.56
2022-09-12T22:25:20.147Z,100135.56
2022-09-12T22:28:23.146Z,100140.53
2022-09-12T22:31:26.955Z,100138.00
2022-09-12T22:34:29.916Z,100141.87
2022-09-12T22:37:32.002Z,100155.13
2022-09-12T22:40:35.012Z,100162.94
2022-09-12T22:43:37.619Z,100161.41
2022-09-12T22:46:40.357Z,100157.91
2022-09-12T22:49:42.521Z,100158.84
2022-09-12T22:52:44.878Z,100162.09
2022-09-12T22:55:47.398Z,100158.25
2022-09-12T22:58:50.747Z,100144.66
2022-09-12T23:01:52.837Z,100156.13
2022-09-12T23:04:55.194Z,100153.28
2022-09-12T23:07:57.362Z,100156.81
2022-09-12T23:11:01.490Z,100161.31
2022-09-12T23:14:03.615Z,100169.00
2022-09-12T23:17:05.959Z,100159.28
2022-09-12T23:20:08.458Z,100151.12
2022-09-12T23:23:10.939Z,100154.31
2022-09-12T23:26:31.151Z,100153.69
2022-09-12T23:29:35.233Z,100151.59
2022-09-12T23:32:37.343Z,100151.31
2022-09-12T23:35:39.651Z,100142.22
2022-09-12T23:38:44.017Z,100149.66
2022-09-12T23:41:46.399Z,100139.16
2022-09-12T23:44:48.462Z,100149.37
2022-09-12T23:47:50.874Z,100148.91
2022-09-12T23:50:53.872Z,100141.59
2022-09-12T23:53:56.421Z,100149.28
2022-09-12T23:56:58.485Z,100143.09
